sensor_id;sensor_type;location;lat;lon;timestamp;P1;durP1;ratioP1;P2;durP2;ratioP2
76123;SDS011;65173;48.066;20.976;2023-02-01T00:00:48;6.00;;;2.10;;
76123;SDS011;65173;48.066;20.976;2023-02-01T00:03:51;3.72;;;1.83;;
76123;SDS011;65173;48.066;20.976;2023-02-01T00:06:53;7.35;;;2.08;;
76123;SDS011;65173;48.066;20.976;2023-02-01T00:09:56;5.22;;;1.85;;
76123;SDS011;65173;48.066;20.976;2023-02-01T00:12:59;3.53;;;2.10;;
76123;SDS011;65173;48.066;20.976;2023-02-01T00:19:12;6.37;;;1.80;;
76123;SDS011;65173;48.066;20.976;2023-02-01T00:22:17;5.18;;;2.30;;
76123;SDS011;65173;48.066;20.976;2023-02-01T00:25:20;6.68;;;2.22;;
76123;SDS011;65173;48.066;20.976;2023-02-01T00:28:22;2.97;;;1.73;;
76123;SDS011;65173;48.066;20.976;2023-02-01T00:31:25;4.05;;;2.28;;
76123;SDS011;65173;48.066;20.976;2023-02-01T00:34:30;4.57;;;1.60;;
76123;SDS011;65173;48.066;20.976;2023-02-01T00:37:33;6.97;;;2.10;;
76123;SDS011;65173;48.066;20.976;2023-02-01T00:40:36;3.63;;;1.70;;
76123;SDS011;65173;48.066;20.976;2023-02-01T00:43:39;1.52;;;1.00;;
76123;SDS011;65173;48.066;20.976;2023-02-01T00:46:42;1.63;;;1.10;;
76123;SDS011;65173;48.066;20.976;2023-02-01T00:49:45;3.73;;;1.50;;
76123;SDS011;65173;48.066;20.976;2023-02-01T00:52:47;1.17;;;1.02;;
76123;SDS011;65173;48.066;20.976;2023-02-01T00:55:51;4.60;;;1.50;;
76123;SDS011;65173;48.066;20.976;2023-02-01T00:58:55;2.40;;;1.97;;
76123;SDS011;65173;48.066;20.976;2023-02-01T01:01:58;5.53;;;1.33;;
76123;SDS011;65173;48.066;20.976;2023-02-01T01:05:00;3.50;;;1.88;;
76123;SDS011;65173;48.066;20.976;2023-02-01T01:08:03;1.63;;;1.52;;
76123;SDS011;65173;48.066;20.976;2023-02-01T01:11:10;2.90;;;1.13;;
76123;SDS011;65173;48.066;20.976;2023-02-01T01:14:17;1.75;;;1.40;;
76123;SDS011;65173;48.066;20.976;2023-02-01T01:17:21;5.32;;;2.00;;
76123;SDS011;65173;48.066;20.976;2023-02-01T01:20:24;5.00;;;2.00;;
76123;SDS011;65173;48.066;20.976;2023-02-01T01:23:27;1.50;;;1.17;;
76123;SDS011;65173;48.066;20.976;2023-02-01T01:26:30;2.30;;;1.45;;
76123;SDS011;65173;48.066;20.976;2023-02-01T01:29:33;2.07;;;1.10;;
76123;SDS011;65173;48.066;20.976;2023-02-01T01:32:36;4.40;;;1.63;;
76123;SDS011;65173;48.066;20.976;2023-02-01T01:35:39;4.53;;;1.75;;
76123;SDS011;65173;48.066;20.976;2023-02-01T01:38:42;3.53;;;1.58;;
76123;SDS011;65173;48.066;20.976;2023-02-01T01:41:45;2.97;;;2.00;;
76123;SDS011;65173;48.066;20.976;2023-02-01T01:48:21;4.60;;;1.27;;
76123;SDS011;65173;48.066;20.976;2023-02-01T01:51:29;6.47;;;1.17;;
76123;SDS011;65173;48.066;20.976;2023-02-01T01:54:37;5.38;;;1.55;;
76123;SDS011;65173;48.066;20.976;2023-02-01T01:57:43;1.25;;;0.90;;
76123;SDS011;65173;48.066;20.976;2023-02-01T02:00:53;5.07;;;1.97;;
76123;SDS011;65173;48.066;20.976;2023-02-01T02:03:56;6.07;;;2.22;;
76123;SDS011;65173;48.066;20.976;2023-02-01T02:07:04;10.32;;;3.22;;
76123;SDS011;65173;48.066;20.976;2023-02-01T02:10:10;7.53;;;2.78;;
76123;SDS011;65173;48.066;20.976;2023-02-01T02:13:14;5.97;;;2.58;;
76123;SDS011;65173;48.066;20.976;2023-02-01T02:19:48;7.45;;;2.38;;
76123;SDS011;65173;48.066;20.976;2023-02-01T02:30:41;4.60;;;2.50;;
76123;SDS011;65173;48.066;20.976;2023-02-01T02:34:05;6.37;;;2.00;;
76123;SDS011;65173;48.066;20.976;2023-02-01T02:44:08;7.97;;;2.00;;
76123;SDS011;65173;48.066;20.976;2023-02-01T02:47:46;4.82;;;1.85;;
76123;SDS011;65173;48.066;20.976;2023-02-01T02:50:53;3.42;;;1.98;;
76123;SDS011;65173;48.066;20.976;2023-02-01T02:54:26;4.35;;;2.30;;
76123;SDS011;65173;48.066;20.976;2023-02-01T02:57:49;3.83;;;1.63;;
76123;SDS011;65173;48.066;20.976;2023-02-01T03:01:11;3.40;;;1.90;;
76123;SDS011;65173;48.066;20.976;2023-02-01T03:04:32;6.13;;;2.17;;
76123;SDS011;65173;48.066;20.976;2023-02-01T03:11:14;4.72;;;1.92;;
76123;SDS011;65173;48.066;20.976;2023-02-01T03:14:17;5.15;;;1.80;;
76123;SDS011;65173;48.066;20.976;2023-02-01T03:17:25;3.10;;;1.48;;
76123;SDS011;65173;48.066;20.976;2023-02-01T03:20:35;3.83;;;1.85;;
76123;SDS011;65173;48.066;20.976;2023-02-01T03:23:41;8.77;;;3.45;;
76123;SDS011;65173;48.066;20.976;2023-02-01T03:26:52;6.28;;;2.53;;
76123;SDS011;65173;48.066;20.976;2023-02-01T03:30:20;3.83;;;1.73;;
76123;SDS011;65173;48.066;20.976;2023-02-01T03:33:25;5.10;;;2.70;;
76123;SDS011;65173;48.066;20.976;2023-02-01T03:42:54;6.82;;;3.85;;
76123;SDS011;65173;48.066;20.976;2023-02-01T03:46:01;5.65;;;2.92;;
76123;SDS011;65173;48.066;20.976;2023-02-01T03:49:10;10.57;;;4.43;;
76123;SDS011;65173;48.066;20.976;2023-02-01T03:55:39;6.13;;;3.08;;
76123;SDS011;65173;48.066;20.976;2023-02-01T03:58:44;16.75;;;5.63;;
76123;SDS011;65173;48.066;20.976;2023-02-01T04:02:03;7.03;;;4.33;;
76123;SDS011;65173;48.066;20.976;2023-02-01T04:05:06;4.15;;;2.15;;
76123;SDS011;65173;48.066;20.976;2023-02-01T04:08:09;8.00;;;2.45;;
76123;SDS011;65173;48.066;20.976;2023-02-01T04:11:12;4.13;;;2.60;;
76123;SDS011;65173;48.066;20.976;2023-02-01T04:14:14;5.82;;;2.50;;
76123;SDS011;65173;48.066;20.976;2023-02-01T04:17:17;4.13;;;1.73;;
76123;SDS011;65173;48.066;20.976;2023-02-01T04:20:20;3.45;;;1.90;;
76123;SDS011;65173;48.066;20.976;2023-02-01T04:23:24;9.48;;;4.85;;
76123;SDS011;65173;48.066;20.976;2023-02-01T04:26:26;5.85;;;2.53;;
76123;SDS011;65173;48.066;20.976;2023-02-01T04:29:29;4.22;;;1.35;;
76123;SDS011;65173;48.066;20.976;2023-02-01T04:32:32;5.27;;;2.40;;
76123;SDS011;65173;48.066;20.976;2023-02-01T04:35:35;3.40;;;1.63;;
76123;SDS011;65173;48.066;20.976;2023-02-01T04:38:38;3.38;;;1.48;;
76123;SDS011;65173;48.066;20.976;2023-02-01T04:41:40;3.00;;;1.67;;
76123;SDS011;65173;48.066;20.976;2023-02-01T04:44:44;3.28;;;1.98;;
76123;SDS011;65173;48.066;20.976;2023-02-01T04:47:46;3.63;;;2.00;;
76123;SDS011;65173;48.066;20.976;2023-02-01T04:50:51;4.07;;;2.00;;
76123;SDS011;65173;48.066;20.976;2023-02-01T04:53:53;29.38;;;11.60;;
76123;SDS011;65173;48.066;20.976;2023-02-01T04:56:57;155.27;;;51.22;;
76123;SDS011;65173;48.066;20.976;2023-02-01T05:00:01;93.00;;;30.83;;
76123;SDS011;65173;48.066;20.976;2023-02-01T05:03:05;45.10;;;15.97;;
76123;SDS011;65173;48.066;20.976;2023-02-01T05:06:08;25.45;;;10.23;;
76123;SDS011;65173;48.066;20.976;2023-02-01T05:09:11;19.38;;;7.97;;
76123;SDS011;65173;48.066;20.976;2023-02-01T05:12:14;9.30;;;4.70;;
76123;SDS011;65173;48.066;20.976;2023-02-01T05:15:34;12.20;;;5.63;;
76123;SDS011;65173;48.066;20.976;2023-02-01T05:18:37;8.57;;;3.80;;
76123;SDS011;65173;48.066;20.976;2023-02-01T05:21:40;6.20;;;3.33;;
76123;SDS011;65173;48.066;20.976;2023-02-01T05:24:43;7.35;;;4.47;;
76123;SDS011;65173;48.066;20.976;2023-02-01T05:27:46;8.15;;;4.45;;
76123;SDS011;65173;48.066;20.976;2023-02-01T05:30:49;13.63;;;5.75;;
76123;SDS011;65173;48.066;20.976;2023-02-01T05:33:52;17.30;;;6.77;;
76123;SDS011;65173;48.066;20.976;2023-02-01T05:36:54;22.30;;;8.80;;
76123;SDS011;65173;48.066;20.976;2023-02-01T05:39:57;27.60;;;10.32;;
76123;SDS011;65173;48.066;20.976;2023-02-01T05:43:00;13.43;;;7.50;;
76123;SDS011;65173;48.066;20.976;2023-02-01T05:46:02;6.47;;;4.32;;
76123;SDS011;65173;48.066;20.976;2023-02-01T05:49:05;7.10;;;3.88;;
76123;SDS011;65173;48.066;20.976;2023-02-01T05:52:08;9.93;;;4.32;;
76123;SDS011;65173;48.066;20.976;2023-02-01T05:55:11;9.05;;;4.32;;
76123;SDS011;65173;48.066;20.976;2023-02-01T05:58:15;7.53;;;3.55;;
76123;SDS011;65173;48.066;20.976;2023-02-01T06:01:18;7.18;;;3.17;;
76123;SDS011;65173;48.066;20.976;2023-02-01T06:04:20;6.37;;;3.20;;
76123;SDS011;65173;48.066;20.976;2023-02-01T06:07:23;8.40;;;3.22;;
76123;SDS011;65173;48.066;20.976;2023-02-01T06:10:26;6.85;;;3.08;;
76123;SDS011;65173;48.066;20.976;2023-02-01T06:13:29;5.27;;;3.20;;
76123;SDS011;65173;48.066;20.976;2023-02-01T06:16:35;6.07;;;2.50;;
76123;SDS011;65173;48.066;20.976;2023-02-01T06:19:37;5.60;;;2.53;;
76123;SDS011;65173;48.066;20.976;2023-02-01T06:22:40;6.22;;;3.05;;
76123;SDS011;65173;48.066;20.976;2023-02-01T06:25:43;10.15;;;4.38;;
76123;SDS011;65173;48.066;20.976;2023-02-01T06:28:45;10.07;;;4.90;;
76123;SDS011;65173;48.066;20.976;2023-02-01T06:31:48;10.48;;;5.00;;
76123;SDS011;65173;48.066;20.976;2023-02-01T06:34:51;11.37;;;5.00;;
76123;SDS011;65173;48.066;20.976;2023-02-01T06:37:57;5.28;;;3.03;;
76123;SDS011;65173;48.066;20.976;2023-02-01T06:41:00;8.93;;;3.45;;
76123;SDS011;65173;48.066;20.976;2023-02-01T06:44:03;7.80;;;3.43;;
76123;SDS011;65173;48.066;20.976;2023-02-01T06:47:06;5.85;;;2.88;;
76123;SDS011;65173;48.066;20.976;2023-02-01T06:50:10;7.25;;;3.65;;
76123;SDS011;65173;48.066;20.976;2023-02-01T06:53:13;6.35;;;4.07;;
76123;SDS011;65173;48.066;20.976;2023-02-01T06:56:16;6.30;;;3.67;;
76123;SDS011;65173;48.066;20.976;2023-02-01T06:59:18;14.07;;;6.95;;
76123;SDS011;65173;48.066;20.976;2023-02-01T07:02:21;21.67;;;9.15;;
76123;SDS011;65173;48.066;20.976;2023-02-01T07:05:24;25.37;;;10.90;;
76123;SDS011;65173;48.066;20.976;2023-02-01T07:08:28;12.23;;;6.13;;
76123;SDS011;65173;48.066;20.976;2023-02-01T07:11:31;10.27;;;6.95;;
76123;SDS011;65173;48.066;20.976;2023-02-01T07:14:34;21.03;;;14.83;;
76123;SDS011;65173;48.066;20.976;2023-02-01T07:17:37;24.80;;;19.10;;
76123;SDS011;65173;48.066;20.976;2023-02-01T07:20:40;30.17;;;21.85;;
76123;SDS011;65173;48.066;20.976;2023-02-01T07:23:42;32.42;;;15.45;;
76123;SDS011;65173;48.066;20.976;2023-02-01T07:26:45;27.95;;;14.70;;
76123;SDS011;65173;48.066;20.976;2023-02-01T07:29:50;24.38;;;16.52;;
76123;SDS011;65173;48.066;20.976;2023-02-01T07:32:52;54.08;;;35.85;;
76123;SDS011;65173;48.066;20.976;2023-02-01T07:35:55;45.20;;;31.43;;
76123;SDS011;65173;48.066;20.976;2023-02-01T07:38:58;28.67;;;16.85;;
76123;SDS011;65173;48.066;20.976;2023-02-01T07:42:01;14.43;;;7.93;;
76123;SDS011;65173;48.066;20.976;2023-02-01T07:45:04;9.10;;;4.53;;
76123;SDS011;65173;48.066;20.976;2023-02-01T07:48:22;7.63;;;4.30;;
76123;SDS011;65173;48.066;20.976;2023-02-01T07:51:26;9.27;;;4.50;;
76123;SDS011;65173;48.066;20.976;2023-02-01T07:54:29;8.18;;;4.32;;
76123;SDS011;65173;48.066;20.976;2023-02-01T07:57:31;16.60;;;7.65;;
76123;SDS011;65173;48.066;20.976;2023-02-01T08:00:34;17.10;;;8.77;;
76123;SDS011;65173;48.066;20.976;2023-02-01T08:06:59;21.23;;;9.37;;
76123;SDS011;65173;48.066;20.976;2023-02-01T08:10:02;11.98;;;6.80;;
76123;SDS011;65173;48.066;20.976;2023-02-01T08:13:04;6.18;;;3.72;;
76123;SDS011;65173;48.066;20.976;2023-02-01T08:16:08;6.80;;;4.70;;
76123;SDS011;65173;48.066;20.976;2023-02-01T08:19:12;10.88;;;5.95;;
76123;SDS011;65173;48.066;20.976;2023-02-01T08:22:15;14.25;;;7.63;;
76123;SDS011;65173;48.066;20.976;2023-02-01T08:25:17;11.23;;;6.85;;
76123;SDS011;65173;48.066;20.976;2023-02-01T08:28:20;7.97;;;4.53;;
76123;SDS011;65173;48.066;20.976;2023-02-01T08:31:24;8.30;;;5.50;;
76123;SDS011;65173;48.066;20.976;2023-02-01T08:34:27;5.00;;;3.70;;
76123;SDS011;65173;48.066;20.976;2023-02-01T08:37:30;10.10;;;5.43;;
76123;SDS011;65173;48.066;20.976;2023-02-01T08:40:34;4.63;;;2.72;;
76123;SDS011;65173;48.066;20.976;2023-02-01T08:43:37;4.57;;;2.63;;
76123;SDS011;65173;48.066;20.976;2023-02-01T08:46:40;5.57;;;2.33;;
76123;SDS011;65173;48.066;20.976;2023-02-01T08:49:42;11.55;;;5.38;;
76123;SDS011;65173;48.066;20.976;2023-02-01T08:52:45;5.10;;;3.67;;
76123;SDS011;65173;48.066;20.976;2023-02-01T08:55:48;5.20;;;4.00;;
76123;SDS011;65173;48.066;20.976;2023-02-01T08:58:51;5.82;;;3.55;;
76123;SDS011;65173;48.066;20.976;2023-02-01T09:01:54;6.28;;;3.40;;
76123;SDS011;65173;48.066;20.976;2023-02-01T09:04:57;10.18;;;6.70;;
76123;SDS011;65173;48.066;20.976;2023-02-01T09:08:01;6.73;;;4.17;;
76123;SDS011;65173;48.066;20.976;2023-02-01T09:11:05;3.65;;;3.00;;
76123;SDS011;65173;48.066;20.976;2023-02-01T09:14:10;4.82;;;2.95;;
76123;SDS011;65173;48.066;20.976;2023-02-01T09:17:12;14.03;;;8.07;;
76123;SDS011;65173;48.066;20.976;2023-02-01T09:20:15;8.25;;;4.40;;
76123;SDS011;65173;48.066;20.976;2023-02-01T09:23:18;6.60;;;3.50;;
76123;SDS011;65173;48.066;20.976;2023-02-01T09:26:22;6.22;;;3.40;;
76123;SDS011;65173;48.066;20.976;2023-02-01T09:29:33;6.55;;;3.58;;
76123;SDS011;65173;48.066;20.976;2023-02-01T09:32:35;6.28;;;3.17;;
76123;SDS011;65173;48.066;20.976;2023-02-01T09:35:38;9.25;;;3.95;;
76123;SDS011;65173;48.066;20.976;2023-02-01T09:38:41;5.53;;;3.70;;
76123;SDS011;65173;48.066;20.976;2023-02-01T09:45:14;6.65;;;4.28;;
76123;SDS011;65173;48.066;20.976;2023-02-01T09:48:24;7.37;;;4.10;;
76123;SDS011;65173;48.066;20.976;2023-02-01T09:51:36;3.00;;;2.10;;
76123;SDS011;65173;48.066;20.976;2023-02-01T09:54:41;3.20;;;2.70;;
76123;SDS011;65173;48.066;20.976;2023-02-01T09:57:51;3.80;;;2.72;;
76123;SDS011;65173;48.066;20.976;2023-02-01T10:01:00;6.20;;;3.47;;
76123;SDS011;65173;48.066;20.976;2023-02-01T10:04:06;10.68;;;5.32;;
76123;SDS011;65173;48.066;20.976;2023-02-01T10:07:13;3.50;;;2.20;;
76123;SDS011;65173;48.066;20.976;2023-02-01T10:10:33;2.57;;;0.80;;
76123;SDS011;65173;48.066;20.976;2023-02-01T10:20:54;2.13;;;0.90;;
76123;SDS011;65173;48.066;20.976;2023-02-01T10:24:15;2.10;;;0.80;;
76123;SDS011;65173;48.066;20.976;2023-02-01T10:27:32;3.53;;;2.05;;
76123;SDS011;65173;48.066;20.976;2023-02-01T10:30:39;1.80;;;0.85;;
76123;SDS011;65173;48.066;20.976;2023-02-01T10:33:47;1.23;;;0.60;;
76123;SDS011;65173;48.066;20.976;2023-02-01T10:36:55;1.33;;;1.20;;
76123;SDS011;65173;48.066;20.976;2023-02-01T10:40:22;2.65;;;1.38;;
76123;SDS011;65173;48.066;20.976;2023-02-01T10:43:27;13.23;;;5.37;;
76123;SDS011;65173;48.066;20.976;2023-02-01T10:46:31;7.13;;;2.47;;
76123;SDS011;65173;48.066;20.976;2023-02-01T10:49:54;7.30;;;2.30;;
76123;SDS011;65173;48.066;20.976;2023-02-01T10:56:25;3.72;;;2.22;;
76123;SDS011;65173;48.066;20.976;2023-02-01T10:59:29;4.75;;;2.28;;
76123;SDS011;65173;48.066;20.976;2023-02-01T11:02:35;5.88;;;2.83;;
76123;SDS011;65173;48.066;20.976;2023-02-01T11:05:45;4.28;;;2.08;;
76123;SDS011;65173;48.066;20.976;2023-02-01T11:08:50;5.55;;;3.88;;
76123;SDS011;65173;48.066;20.976;2023-02-01T11:11:56;1.75;;;1.05;;
76123;SDS011;65173;48.066;20.976;2023-02-01T11:15:19;1.80;;;0.63;;
76123;SDS011;65173;48.066;20.976;2023-02-01T11:18:25;2.08;;;0.70;;
76123;SDS011;65173;48.066;20.976;2023-02-01T11:21:30;4.13;;;2.45;;
76123;SDS011;65173;48.066;20.976;2023-02-01T11:24:36;5.43;;;2.47;;
76123;SDS011;65173;48.066;20.976;2023-02-01T11:27:41;5.43;;;2.33;;
76123;SDS011;65173;48.066;20.976;2023-02-01T11:30:55;8.38;;;3.70;;
76123;SDS011;65173;48.066;20.976;2023-02-01T11:37:37;6.13;;;1.80;;
76123;SDS011;65173;48.066;20.976;2023-02-01T11:40:43;15.25;;;7.30;;
76123;SDS011;65173;48.066;20.976;2023-02-01T11:47:08;2.50;;;1.03;;
76123;SDS011;65173;48.066;20.976;2023-02-01T11:50:38;1.20;;;0.70;;
76123;SDS011;65173;48.066;20.976;2023-02-01T12:11:30;4.47;;;1.73;;
76123;SDS011;65173;48.066;20.976;2023-02-01T12:17:53;2.65;;;0.75;;
76123;SDS011;65173;48.066;20.976;2023-02-01T12:28:03;32.05;;;12.45;;
76123;SDS011;65173;48.066;20.976;2023-02-01T12:34:34;2.25;;;0.95;;
76123;SDS011;65173;48.066;20.976;2023-02-01T12:44:35;4.72;;;1.98;;
76123;SDS011;65173;48.066;20.976;2023-02-01T12:51:22;4.00;;;1.38;;
76123;SDS011;65173;48.066;20.976;2023-02-01T12:57:56;6.28;;;2.55;;
76123;SDS011;65173;48.066;20.976;2023-02-01T13:01:06;7.63;;;2.78;;
76123;SDS011;65173;48.066;20.976;2023-02-01T13:04:37;14.40;;;5.80;;
76123;SDS011;65173;48.066;20.976;2023-02-01T13:08:10;6.10;;;1.58;;
76123;SDS011;65173;48.066;20.976;2023-02-01T13:17:28;7.68;;;1.90;;
76123;SDS011;65173;48.066;20.976;2023-02-01T13:20:35;7.97;;;3.65;;
76123;SDS011;65173;48.066;20.976;2023-02-01T13:23:46;24.63;;;9.90;;
76123;SDS011;65173;48.066;20.976;2023-02-01T13:26:53;9.10;;;2.90;;
76123;SDS011;65173;48.066;20.976;2023-02-01T13:43:17;1.95;;;0.70;;
76123;SDS011;65173;48.066;20.976;2023-02-01T13:46:25;1.60;;;1.15;;
76123;SDS011;65173;48.066;20.976;2023-02-01T13:49:31;4.68;;;1.55;;
76123;SDS011;65173;48.066;20.976;2023-02-01T13:52:43;4.68;;;1.70;;
76123;SDS011;65173;48.066;20.976;2023-02-01T14:09:09;6.30;;;2.53;;
76123;SDS011;65173;48.066;20.976;2023-02-01T14:19:29;12.70;;;3.95;;
76123;SDS011;65173;48.066;20.976;2023-02-01T14:22:36;5.18;;;2.13;;
76123;SDS011;65173;48.066;20.976;2023-02-01T14:25:38;13.20;;;3.97;;
76123;SDS011;65173;48.066;20.976;2023-02-01T14:28:46;17.45;;;4.65;;
76123;SDS011;65173;48.066;20.976;2023-02-01T14:35:06;23.05;;;9.30;;
76123;SDS011;65173;48.066;20.976;2023-02-01T14:38:19;3.78;;;1.88;;
76123;SDS011;65173;48.066;20.976;2023-02-01T14:41:32;4.57;;;2.27;;
76123;SDS011;65173;48.066;20.976;2023-02-01T14:44:36;4.57;;;1.88;;
76123;SDS011;65173;48.066;20.976;2023-02-01T14:47:39;4.22;;;1.90;;
76123;SDS011;65173;48.066;20.976;2023-02-01T14:50:48;1.67;;;1.17;;
76123;SDS011;65173;48.066;20.976;2023-02-01T14:53:51;3.80;;;1.40;;
76123;SDS011;65173;48.066;20.976;2023-02-01T14:56:54;5.45;;;2.15;;
76123;SDS011;65173;48.066;20.976;2023-02-01T15:00:05;2.45;;;0.70;;
76123;SDS011;65173;48.066;20.976;2023-02-01T15:03:22;33.47;;;13.50;;
76123;SDS011;65173;48.066;20.976;2023-02-01T15:09:48;95.45;;;34.97;;
76123;SDS011;65173;48.066;20.976;2023-02-01T15:12:51;2.70;;;1.60;;
76123;SDS011;65173;48.066;20.976;2023-02-01T15:16:04;5.78;;;2.03;;
76123;SDS011;65173;48.066;20.976;2023-02-01T15:19:12;2.83;;;0.90;;
76123;SDS011;65173;48.066;20.976;2023-02-01T15:22:18;8.20;;;1.95;;
76123;SDS011;65173;48.066;20.976;2023-02-01T15:25:21;1.30;;;0.55;;
76123;SDS011;65173;48.066;20.976;2023-02-01T15:28:26;3.25;;;1.40;;
76123;SDS011;65173;48.066;20.976;2023-02-01T15:31:33;1.63;;;0.70;;
76123;SDS011;65173;48.066;20.976;2023-02-01T15:34:48;1.43;;;0.80;;
76123;SDS011;65173;48.066;20.976;2023-02-01T15:37:51;0.60;;;0.30;;
76123;SDS011;65173;48.066;20.976;2023-02-01T15:47:34;2.35;;;1.05;;
76123;SDS011;65173;48.066;20.976;2023-02-01T15:50:38;1.58;;;0.85;;
76123;SDS011;65173;48.066;20.976;2023-02-01T15:53:43;3.10;;;1.60;;
76123;SDS011;65173;48.066;20.976;2023-02-01T15:56:49;2.25;;;1.00;;
76123;SDS011;65173;48.066;20.976;2023-02-01T15:59:54;3.67;;;0.98;;
76123;SDS011;65173;48.066;20.976;2023-02-01T16:03:00;4.57;;;2.30;;
76123;SDS011;65173;48.066;20.976;2023-02-01T16:06:07;20.40;;;6.87;;
76123;SDS011;65173;48.066;20.976;2023-02-01T16:09:11;5.97;;;1.13;;
76123;SDS011;65173;48.066;20.976;2023-02-01T16:15:33;96.90;;;29.30;;
76123;SDS011;65173;48.066;20.976;2023-02-01T16:18:36;8.77;;;4.05;;
76123;SDS011;65173;48.066;20.976;2023-02-01T16:21:38;9.30;;;3.67;;
76123;SDS011;65173;48.066;20.976;2023-02-01T16:24:41;7.15;;;3.00;;
76123;SDS011;65173;48.066;20.976;2023-02-01T16:27:43;6.03;;;4.65;;
76123;SDS011;65173;48.066;20.976;2023-02-01T16:30:47;4.30;;;2.60;;
76123;SDS011;65173;48.066;20.976;2023-02-01T16:33:51;4.10;;;2.25;;
76123;SDS011;65173;48.066;20.976;2023-02-01T16:36:53;3.67;;;1.57;;
76123;SDS011;65173;48.066;20.976;2023-02-01T16:39:59;4.60;;;2.25;;
76123;SDS011;65173;48.066;20.976;2023-02-01T16:43:02;4.63;;;2.10;;
76123;SDS011;65173;48.066;20.976;2023-02-01T16:46:05;1.83;;;1.17;;
76123;SDS011;65173;48.066;20.976;2023-02-01T16:49:22;3.20;;;1.67;;
76123;SDS011;65173;48.066;20.976;2023-02-01T16:52:26;5.03;;;2.88;;
76123;SDS011;65173;48.066;20.976;2023-02-01T16:55:29;4.97;;;1.80;;
76123;SDS011;65173;48.066;20.976;2023-02-01T16:58:32;3.17;;;1.38;;
76123;SDS011;65173;48.066;20.976;2023-02-01T17:01:35;3.63;;;1.95;;
76123;SDS011;65173;48.066;20.976;2023-02-01T17:04:39;6.82;;;2.10;;
76123;SDS011;65173;48.066;20.976;2023-02-01T17:07:42;3.37;;;2.00;;
76123;SDS011;65173;48.066;20.976;2023-02-01T17:10:45;4.47;;;2.30;;
76123;SDS011;65173;48.066;20.976;2023-02-01T17:13:48;2.95;;;1.45;;
76123;SDS011;65173;48.066;20.976;2023-02-01T17:16:51;5.37;;;2.20;;
76123;SDS011;65173;48.066;20.976;2023-02-01T17:19:54;5.35;;;3.47;;
76123;SDS011;65173;48.066;20.976;2023-02-01T17:22:58;12.90;;;7.00;;
76123;SDS011;65173;48.066;20.976;2023-02-01T17:26:02;6.75;;;3.45;;
76123;SDS011;65173;48.066;20.976;2023-02-01T17:29:05;5.85;;;3.05;;
76123;SDS011;65173;48.066;20.976;2023-02-01T17:32:13;10.68;;;5.25;;
76123;SDS011;65173;48.066;20.976;2023-02-01T17:35:21;5.03;;;1.85;;
76123;SDS011;65173;48.066;20.976;2023-02-01T17:38:27;6.90;;;3.80;;
76123;SDS011;65173;48.066;20.976;2023-02-01T17:41:30;5.82;;;2.80;;
76123;SDS011;65173;48.066;20.976;2023-02-01T17:44:33;5.82;;;3.28;;
76123;SDS011;65173;48.066;20.976;2023-02-01T17:47:36;5.43;;;2.40;;
76123;SDS011;65173;48.066;20.976;2023-02-01T17:50:40;5.45;;;2.80;;
76123;SDS011;65173;48.066;20.976;2023-02-01T17:53:43;8.77;;;3.20;;
76123;SDS011;65173;48.066;20.976;2023-02-01T17:56:47;4.78;;;2.22;;
76123;SDS011;65173;48.066;20.976;2023-02-01T17:59:50;5.85;;;1.75;;
76123;SDS011;65173;48.066;20.976;2023-02-01T18:02:52;2.92;;;1.73;;
76123;SDS011;65173;48.066;20.976;2023-02-01T18:05:56;4.00;;;1.42;;
76123;SDS011;65173;48.066;20.976;2023-02-01T18:09:00;2.23;;;1.53;;
76123;SDS011;65173;48.066;20.976;2023-02-01T18:12:03;3.55;;;1.83;;
76123;SDS011;65173;48.066;20.976;2023-02-01T18:15:20;4.20;;;1.45;;
76123;SDS011;65173;48.066;20.976;2023-02-01T18:18:25;3.20;;;0.47;;
76123;SDS011;65173;48.066;20.976;2023-02-01T18:21:37;7.40;;;2.10;;
76123;SDS011;65173;48.066;20.976;2023-02-01T18:24:44;2.45;;;1.00;;
76123;SDS011;65173;48.066;20.976;2023-02-01T18:27:48;2.95;;;1.75;;
76123;SDS011;65173;48.066;20.976;2023-02-01T18:30:53;4.18;;;1.70;;
76123;SDS011;65173;48.066;20.976;2023-02-01T18:33:57;2.25;;;1.55;;
76123;SDS011;65173;48.066;20.976;2023-02-01T18:37:00;2.97;;;1.67;;
76123;SDS011;65173;48.066;20.976;2023-02-01T18:40:03;5.50;;;2.33;;
76123;SDS011;65173;48.066;20.976;2023-02-01T18:43:09;4.15;;;2.97;;
76123;SDS011;65173;48.066;20.976;2023-02-01T18:46:13;4.00;;;2.10;;
76123;SDS011;65173;48.066;20.976;2023-02-01T18:49:16;3.60;;;2.83;;
76123;SDS011;65173;48.066;20.976;2023-02-01T18:52:21;12.48;;;4.25;;
76123;SDS011;65173;48.066;20.976;2023-02-01T18:55:24;2.40;;;2.00;;
76123;SDS011;65173;48.066;20.976;2023-02-01T18:58:28;2.35;;;1.50;;
76123;SDS011;65173;48.066;20.976;2023-02-01T19:01:30;2.90;;;1.38;;
76123;SDS011;65173;48.066;20.976;2023-02-01T19:04:34;3.33;;;1.20;;
76123;SDS011;65173;48.066;20.976;2023-02-01T19:07:36;5.03;;;2.17;;
76123;SDS011;65173;48.066;20.976;2023-02-01T19:10:41;3.10;;;1.50;;
76123;SDS011;65173;48.066;20.976;2023-02-01T19:13:44;3.72;;;1.67;;
76123;SDS011;65173;48.066;20.976;2023-02-01T19:16:47;10.57;;;5.10;;
76123;SDS011;65173;48.066;20.976;2023-02-01T19:19:51;15.03;;;6.73;;
76123;SDS011;65173;48.066;20.976;2023-02-01T19:22:55;5.20;;;2.60;;
76123;SDS011;65173;48.066;20.976;2023-02-01T19:25:58;13.02;;;6.97;;
76123;SDS011;65173;48.066;20.976;2023-02-01T19:29:01;4.45;;;3.00;;
76123;SDS011;65173;48.066;20.976;2023-02-01T19:32:05;2.65;;;1.77;;
76123;SDS011;65173;48.066;20.976;2023-02-01T19:35:09;4.63;;;3.53;;
76123;SDS011;65173;48.066;20.976;2023-02-01T19:38:15;7.25;;;4.00;;
76123;SDS011;65173;48.066;20.976;2023-02-01T19:41:18;15.90;;;6.93;;
76123;SDS011;65173;48.066;20.976;2023-02-01T19:44:21;10.27;;;5.30;;
76123;SDS011;65173;48.066;20.976;2023-02-01T19:47:24;20.08;;;10.30;;
76123;SDS011;65173;48.066;20.976;2023-02-01T19:50:26;22.83;;;9.80;;
76123;SDS011;65173;48.066;20.976;2023-02-01T19:53:31;4.90;;;4.13;;
76123;SDS011;65173;48.066;20.976;2023-02-01T19:56:34;5.72;;;3.35;;
76123;SDS011;65173;48.066;20.976;2023-02-01T19:59:37;10.00;;;2.40;;
76123;SDS011;65173;48.066;20.976;2023-02-01T20:02:40;6.53;;;2.28;;
76123;SDS011;65173;48.066;20.976;2023-02-01T20:05:43;5.55;;;3.40;;
76123;SDS011;65173;48.066;20.976;2023-02-01T20:08:47;4.15;;;2.75;;
76123;SDS011;65173;48.066;20.976;2023-02-01T20:11:51;10.10;;;4.57;;
76123;SDS011;65173;48.066;20.976;2023-02-01T20:14:56;8.73;;;4.15;;
76123;SDS011;65173;48.066;20.976;2023-02-01T20:17:59;6.68;;;3.50;;
76123;SDS011;65173;48.066;20.976;2023-02-01T20:21:02;7.77;;;2.77;;
76123;SDS011;65173;48.066;20.976;2023-02-01T20:24:05;5.25;;;2.80;;
76123;SDS011;65173;48.066;20.976;2023-02-01T20:27:08;4.53;;;2.20;;
76123;SDS011;65173;48.066;20.976;2023-02-01T20:30:11;2.80;;;1.83;;
76123;SDS011;65173;48.066;20.976;2023-02-01T20:33:21;2.00;;;1.40;;
76123;SDS011;65173;48.066;20.976;2023-02-01T20:36:24;3.50;;;1.95;;
76123;SDS011;65173;48.066;20.976;2023-02-01T20:39:29;3.65;;;1.70;;
76123;SDS011;65173;48.066;20.976;2023-02-01T20:42:32;6.80;;;2.33;;
76123;SDS011;65173;48.066;20.976;2023-02-01T20:45:39;6.00;;;3.05;;
76123;SDS011;65173;48.066;20.976;2023-02-01T20:48:44;5.95;;;2.67;;
76123;SDS011;65173;48.066;20.976;2023-02-01T20:51:48;3.87;;;1.43;;
76123;SDS011;65173;48.066;20.976;2023-02-01T20:54:51;2.15;;;1.33;;
76123;SDS011;65173;48.066;20.976;2023-02-01T20:57:54;2.13;;;1.00;;
76123;SDS011;65173;48.066;20.976;2023-02-01T21:00:57;3.35;;;1.83;;